createdAt,value
2022-11-03T00:00:27.024Z,95.84
2022-11-03T00:01:27.283Z,95.80
2022-11-03T00:02:28.078Z,95.70
2022-11-03T00:03:50.051Z,95.49
2022-11-03T00:04:26.981Z,95.18
2022-11-03T00:05:34.455Z,94.97
2022-11-03T00:06:34.460Z,94.76
2022-11-03T00:07:27.961Z,94.87
2022-11-03T00:08:34.425Z,94.87
2022-11-03T00:09:34.413Z,94.76
2022-11-03T00:10:34.396Z,94.87
2022-11-03T00:11:34.397Z,94.87
2022-11-03T00:12:35.582Z,94.93
2022-11-03T00:13:34.350Z,94.93
2022-11-03T00:14:49.909Z,94.62
2022-11-03T00:18:54.843Z,94.76
2022-11-03T00:20:02.305Z,94.76
2022-11-03T00:21:02.294Z,94.97
2022-11-03T00:22:03.292Z,95.03
2022-11-03T00:23:03.753Z,95.14
2022-11-03T00:24:02.347Z,94.89
2022-11-03T00:25:02.251Z,94.47
2022-11-03T00:26:02.220Z,94.31
2022-11-03T00:29:14.593Z,94.06
2022-11-03T00:31:25.826Z,93.64
2022-11-03T00:32:34.487Z,93.43
2022-11-03T00:33:33.295Z,93.23
2022-11-03T00:34:33.272Z,93.23
2022-11-03T00:36:36.012Z,93.33
2022-11-03T00:37:44.677Z,93.54
2022-11-03T00:38:43.475Z,93.33
2022-11-03T00:39:43.459Z,93.43
2022-11-03T00:40:43.461Z,93.37
2022-11-03T00:41:43.420Z,93.48
2022-11-03T00:42:45.597Z,93.79
2022-11-03T00:43:43.404Z,93.89
2022-11-03T00:44:44.416Z,94.10
2022-11-03T00:45:43.378Z,94.10
2022-11-03T00:46:36.026Z,94.10
2022-11-03T00:47:35.829Z,94.10
2022-11-03T00:48:35.926Z,94.14
2022-11-03T00:49:35.909Z,94.24
2022-11-03T00:50:35.921Z,94.35
2022-11-03T00:51:35.800Z,94.66
2022-11-03T00:52:35.821Z,94.76
2022-11-03T00:53:35.856Z,94.97
2022-11-03T00:54:35.833Z,94.87
2022-11-03T00:55:35.846Z,94.87
2022-11-03T00:56:35.758Z,94.82
2022-11-03T00:57:35.767Z,94.62
2022-11-03T00:58:35.769Z,94.62
2022-11-03T00:59:35.821Z,94.41
2022-11-03T01:00:35.778Z,94.10
2022-11-03T01:01:39.386Z,94.10
2022-11-03T01:02:37.837Z,93.99
2022-11-03T01:03:35.702Z,93.99
2022-11-03T01:04:35.791Z,93.89
2022-11-03T01:05:35.719Z,94.10
2022-11-03T01:06:35.612Z,94.14
2022-11-03T01:07:35.621Z,94.31
2022-11-03T01:08:35.638Z,94.51
2022-11-03T01:09:35.699Z,94.31
2022-11-03T01:10:43.066Z,94.10
2022-11-03T01:11:35.546Z,94.14
2022-11-03T01:12:35.527Z,94.04
2022-11-03T01:13:35.516Z,94.14
2022-11-03T01:14:35.517Z,94.39
2022-11-03T01:15:35.503Z,94.60
2022-11-03T01:16:35.485Z,94.81
2022-11-03T01:17:35.467Z,94.91
2022-11-03T01:18:35.446Z,95.01
2022-11-03T01:19:35.471Z,95.12
2022-11-03T01:20:35.435Z,95.22
2022-11-03T01:21:35.419Z,95.32
2022-11-03T01:22:35.420Z,95.43
2022-11-03T01:23:35.397Z,95.43
2022-11-03T01:24:35.418Z,95.47
2022-11-03T01:25:35.412Z,95.47
2022-11-03T01:26:35.399Z,95.57
2022-11-03T01:27:35.411Z,95.57
2022-11-03T01:28:35.433Z,95.68
2022-11-03T01:29:35.351Z,95.68
2022-11-03T01:30:35.327Z,95.78
2022-11-03T01:31:35.331Z,95.83
2022-11-03T01:32:35.353Z,95.93
2022-11-03T01:33:37.319Z,95.93
2022-11-03T01:34:35.286Z,95.93
2022-11-03T01:35:35.259Z,96.03
2022-11-03T01:36:35.278Z,96.03
2022-11-03T01:37:35.272Z,96.14
2022-11-03T01:38:35.277Z,96.14
2022-11-03T01:39:35.248Z,96.14
2022-11-03T01:40:35.191Z,96.24
2022-11-03T01:41:35.204Z,96.24
2022-11-03T01:42:35.198Z,96.34
2022-11-03T01:43:35.209Z,96.45
2022-11-03T01:44:36.165Z,96.55
2022-11-03T01:45:35.228Z,96.34
2022-11-03T01:46:35.140Z,96.34
2022-11-03T01:47:35.130Z,96.14
2022-11-03T01:48:35.140Z,96.03
2022-11-03T01:49:35.208Z,96.03
2022-11-03T01:50:36.071Z,95.93
2022-11-03T01:51:35.049Z,95.93
2022-11-03T01:52:35.068Z,95.72
2022-11-03T01:53:35.078Z,95.72
2022-11-03T01:54:35.111Z,95.72
2022-11-03T01:55:36.028Z,95.72
2022-11-03T01:56:34.991Z,95.77
2022-11-03T01:57:35.000Z,95.87
2022-11-03T01:58:35.011Z,95.87
2022-11-03T01:59:35.041Z,95.98
2022-11-03T02:00:35.037Z,95.98
2022-11-03T02:01:35.047Z,95.98
2022-11-03T02:02:36.031Z,95.98
2022-11-03T02:03:34.889Z,95.87
2022-11-03T02:04:34.967Z,95.87
2022-11-03T02:05:34.951Z,95.87
2022-11-03T02:06:34.860Z,95.87
2022-11-03T02:08:45.109Z,95.92
2022-11-03T02:09:45.139Z,96.02
2022-11-03T02:10:45.119Z,96.12
2022-11-03T02:11:45.024Z,96.12
2022-11-03T02:14:06.470Z,96.02
2022-11-03T02:15:06.577Z,96.02
2022-11-03T02:16:06.556Z,96.12
2022-11-03T02:17:06.462Z,96.12
2022-11-03T02:18:06.464Z,96.02
2022-11-03T02:19:06.403Z,96.02
2022-11-03T02:20:07.455Z,96.02
2022-11-03T02:21:06.492Z,96.02
2022-11-03T02:22:06.415Z,96.12
2022-11-03T02:23:06.623Z,96.23
2022-11-03T02:24:06.414Z,96.23
2022-11-03T02:25:07.365Z,96.33
2022-11-03T02:26:06.428Z,96.23
2022-11-03T02:27:06.337Z,96.27
2022-11-03T02:28:06.334Z,96.27
2022-11-03T02:29:06.359Z,96.37
2022-11-03T02:30:06.382Z,96.48
2022-11-03T02:31:07.281Z,96.48
2022-11-03T02:32:06.272Z,96.58
2022-11-03T02:33:06.493Z,96.69
2022-11-03T02:34:06.300Z,96.85
2022-11-03T02:35:06.203Z,96.95
2022-11-03T02:36:06.284Z,96.95
2022-11-03T02:37:06.184Z,97.06
2022-11-03T02:38:06.203Z,97.06
2022-11-03T02:39:06.365Z,97.06
2022-11-03T02:40:06.145Z,97.16
2022-11-03T02:41:06.229Z,97.16
2022-11-03T02:42:27.228Z,97.16
2022-11-03T02:43:06.389Z,97.16
2022-11-03T02:44:06.147Z,97.16
2022-11-03T02:45:06.104Z,97.02
2022-11-03T02:46:06.168Z,97.02
2022-11-03T02:47:06.168Z,96.85
2022-11-03T02:48:27.063Z,96.85
2022-11-03T02:49:06.045Z,96.75
2022-11-03T02:50:06.015Z,96.85
2022-11-03T02:51:06.064Z,96.75
2022-11-03T02:52:06.106Z,96.75
2022-11-03T02:53:06.358Z,96.75
2022-11-03T02:54:06.008Z,96.85
2022-11-03T02:55:06.078Z,96.85
2022-11-03T02:56:06.014Z,96.85
2022-11-03T02:57:06.044Z,96.85
2022-11-03T02:58:05.936Z,96.85
2022-11-03T02:59:05.941Z,96.64
2022-11-03T03:00:07.930Z,96.54
2022-11-03T03:01:06.016Z,96.44
2022-11-03T03:02:06.111Z,96.44
2022-11-03T03:03:06.232Z,96.44
2022-11-03T03:04:05.895Z,96.44
2022-11-03T03:05:05.902Z,96.44
2022-11-03T03:06:07.857Z,96.44
2022-11-03T03:07:05.877Z,96.54
2022-11-03T03:08:06.819Z,96.54
2022-11-03T03:09:06.826Z,96.64
2022-11-03T03:10:05.834Z,96.64
2022-11-03T03:11:05.826Z,96.54
2022-11-03T03:12:05.834Z,96.44
2022-11-03T03:13:06.073Z,96.33
2022-11-03T03:14:06.773Z,96.12
2022-11-03T03:15:05.837Z,96.02
2022-11-03T03:16:05.668Z,95.92
2022-11-03T03:17:06.776Z,95.81
2022-11-03T03:18:05.771Z,95.81
2022-11-03T03:19:05.666Z,95.75
2022-11-03T03:20:05.725Z,95.65
2022-11-03T03:21:05.774Z,95.75
2022-11-03T03:22:05.703Z,95.86
2022-11-03T03:23:09.036Z,95.86
2022-11-03T03:24:06.638Z,95.96
2022-11-03T03:25:05.723Z,95.96
2022-11-03T03:26:07.572Z,95.96
2022-11-03T03:28:15.763Z,96.17
2022-11-03T03:29:16.816Z,96.27
2022-11-03T03:30:24.536Z,96.27
2022-11-03T03:31:23.245Z,96.27
2022-11-03T03:32:15.777Z,96.17
2022-11-03T03:33:15.830Z,96.06
2022-11-03T03:34:33.348Z,96.06
2022-11-03T03:36:26.036Z,96.06
2022-11-03T03:37:33.561Z,96.27
2022-11-03T03:38:33.547Z,96.33
2022-11-03T03:39:33.510Z,96.33
2022-11-03T03:40:34.691Z,96.23
2022-11-03T03:41:25.987Z,96.23
2022-11-03T03:42:26.000Z,96.29
2022-11-03T03:43:47.024Z,96.08
2022-11-03T03:44:25.913Z,95.98
2022-11-03T03:45:29.200Z,95.98
2022-11-03T03:46:27.998Z,95.87
2022-11-03T03:47:25.920Z,95.56
2022-11-03T03:48:25.929Z,95.46
2022-11-03T03:49:26.995Z,95.50
2022-11-03T04:02:50.985Z,96.02
2022-11-03T04:03:51.025Z,95.92
2022-11-03T04:04:51.044Z,95.92
2022-11-03T04:05:50.983Z,95.81
2022-11-03T04:06:50.962Z,95.61
2022-11-03T04:07:50.922Z,95.50
2022-11-03T04:08:50.985Z,95.40
2022-11-03T04:09:50.976Z,95.34
2022-11-03T04:10:50.953Z,95.23
2022-11-03T04:11:50.908Z,95.13
2022-11-03T04:12:50.897Z,95.03
2022-11-03T04:13:50.924Z,95.07
2022-11-03T04:14:50.911Z,95.07
2022-11-03T04:15:50.837Z,95.07
2022-11-03T04:16:50.865Z,95.07
2022-11-03T04:17:50.846Z,95.07
2022-11-03T04:18:50.848Z,95.07
2022-11-03T04:19:50.845Z,95.11
2022-11-03T04:20:50.775Z,95.21
2022-11-03T04:21:50.745Z,95.21
2022-11-03T04:22:50.783Z,95.21
2022-11-03T04:23:50.785Z,95.32
2022-11-03T04:24:50.795Z,95.32
2022-11-03T04:25:51.123Z,95.42
2022-11-03T04:26:50.705Z,95.53
2022-11-03T04:27:50.745Z,95.57
2022-11-03T04:28:50.751Z,95.67
2022-11-03T04:29:50.742Z,95.67
2022-11-03T04:30:54.591Z,95.78
2022-11-03T04:31:51.662Z,95.89
2022-11-03T04:32:50.647Z,95.78
2022-11-03T04:33:50.643Z,95.89
2022-11-03T04:34:51.723Z,95.89
2022-11-03T04:35:50.572Z,95.99
2022-11-03T04:36:50.573Z,95.99
2022-11-03T04:37:50.554Z,95.99
2022-11-03T04:38:50.505Z,96.09
2022-11-03T04:39:50.572Z,96.09
2022-11-03T04:40:53.806Z,96.20
2022-11-03T04:41:50.505Z,96.20
2022-11-03T04:42:50.460Z,96.30
2022-11-03T04:43:50.490Z,96.45
2022-11-03T04:44:50.427Z,96.41
2022-11-03T04:45:51.537Z,96.51
2022-11-03T04:46:50.406Z,96.66
2022-11-03T04:47:50.417Z,96.66
2022-11-03T04:48:50.374Z,96.76
2022-11-03T04:49:50.357Z,96.86
2022-11-03T04:50:50.388Z,96.82
2022-11-03T04:51:50.352Z,96.92
2022-11-03T04:52:50.326Z,96.92
2022-11-03T04:53:50.306Z,96.92
2022-11-03T04:54:50.298Z,96.92
2022-11-03T04:55:50.314Z,96.92
2022-11-03T04:56:50.278Z,96.92
2022-11-03T04:57:50.269Z,96.92
2022-11-03T04:58:50.236Z,96.92
2022-11-03T04:59:50.227Z,97.03
2022-11-03T05:00:50.290Z,97.03
2022-11-03T05:01:50.361Z,97.03
2022-11-03T05:02:53.154Z,97.03
2022-11-03T05:03:51.173Z,97.03
2022-11-03T05:04:50.212Z,97.09
2022-11-03T05:05:50.172Z,96.98
2022-11-03T05:06:50.117Z,96.88
2022-11-03T05:07:50.127Z,96.88
2022-11-03T05:08:50.100Z,96.82
2022-11-03T05:09:50.107Z,96.82
2022-11-03T05:10:50.118Z,96.82
2022-11-03T05:11:50.077Z,96.82
2022-11-03T05:12:50.056Z,96.82
2022-11-03T05:13:50.057Z,96.82
2022-11-03T05:14:54.085Z,96.82
2022-11-03T05:15:51.039Z,96.92
2022-11-03T05:16:50.059Z,97.03
2022-11-03T05:17:49.995Z,96.98
2022-11-03T05:18:49.972Z,96.98
2022-11-03T05:19:50.002Z,97.09
2022-11-03T05:20:49.972Z,97.09
2022-11-03T05:21:49.957Z,96.98
2022-11-03T05:22:49.930Z,96.98
2022-11-03T05:23:49.908Z,96.98
2022-11-03T05:24:49.906Z,96.98
2022-11-03T05:25:49.908Z,97.09
2022-11-03T05:26:49.957Z,97.19
2022-11-03T05:27:49.869Z,97.25
2022-11-03T05:28:49.856Z,97.45
2022-11-03T05:29:49.837Z,97.45
2022-11-03T05:30:50.830Z,97.52
2022-11-03T05:31:49.846Z,97.52
2022-11-03T05:32:49.799Z,97.47
2022-11-03T05:33:49.868Z,97.43
2022-11-03T05:34:49.768Z,97.22
2022-11-03T05:35:49.785Z,97.02
2022-11-03T05:37:02.313Z,96.81
2022-11-03T05:37:49.730Z,96.70
2022-11-03T05:38:49.740Z,96.64
2022-11-03T05:39:49.739Z,96.54
2022-11-03T05:40:49.710Z,96.54
2022-11-03T05:41:50.709Z,96.64
2022-11-03T05:42:49.663Z,96.70
2022-11-03T05:43:53.086Z,96.81
2022-11-03T05:44:49.629Z,96.81
2022-11-03T05:45:56.095Z,96.70
2022-11-03T05:46:50.744Z,96.70
2022-11-03T05:47:52.012Z,96.50
2022-11-03T05:48:49.605Z,96.60
2022-11-03T05:49:49.569Z,96.50
2022-11-03T05:50:49.666Z,96.50
2022-11-03T05:51:50.562Z,96.39
2022-11-03T05:52:49.530Z,96.39
2022-11-03T05:53:49.530Z,96.39
2022-11-03T05:54:52.035Z,96.44
2022-11-03T05:55:49.515Z,96.44
2022-11-03T05:56:49.515Z,96.54
2022-11-03T05:57:50.708Z,96.64
2022-11-03T05:58:51.077Z,96.64
2022-11-03T05:59:49.442Z,96.64
2022-11-03T06:00:51.861Z,96.64
2022-11-03T06:02:02.589Z,96.75
2022-11-03T06:02:49.464Z,96.85
2022-11-03T06:03:49.419Z,96.95
2022-11-03T06:04:49.371Z,96.85
2022-11-03T06:05:49.381Z,96.95
2022-11-03T06:06:49.361Z,96.95
2022-11-03T06:07:50.375Z,96.95
2022-11-03T06:08:51.446Z,96.95
2022-11-03T06:10:02.023Z,96.89
2022-11-03T06:10:49.312Z,96.79
2022-11-03T06:11:51.234Z,96.69
2022-11-03T06:12:49.271Z,96.69
2022-11-03T06:13:49.252Z,96.69
2022-11-03T06:14:50.767Z,96.58
2022-11-03T06:15:49.252Z,96.48
2022-11-03T06:16:49.223Z,96.48
2022-11-03T06:17:49.203Z,96.42
2022-11-03T06:18:49.212Z,96.31
2022-11-03T06:19:49.180Z,96.21
2022-11-03T06:20:49.182Z,96.21
2022-11-03T06:21:49.163Z,96.21
2022-11-03T06:22:49.140Z,96.21
2022-11-03T06:23:49.123Z,96.31
2022-11-03T06:24:49.106Z,96.42
2022-11-03T06:25:49.126Z,96.42
2022-11-03T06:26:49.114Z,96.52
2022-11-03T06:27:49.076Z,96.62
2022-11-03T06:28:49.080Z,96.73
2022-11-03T06:29:49.054Z,96.73
2022-11-03T06:30:49.044Z,96.62
2022-11-03T06:31:49.055Z,96.73
2022-11-03T06:32:49.065Z,96.83
2022-11-03T06:33:49.012Z,96.94
2022-11-03T06:34:48.979Z,96.83
2022-11-03T06:35:48.993Z,96.89
2022-11-03T06:36:48.984Z,96.89
2022-11-03T06:37:48.944Z,96.95
2022-11-03T06:38:48.974Z,97.16
2022-11-03T06:39:48.916Z,97.02
2022-11-03T06:40:48.914Z,97.02
2022-11-03T06:41:49.944Z,96.81
2022-11-03T06:42:48.874Z,96.81
2022-11-03T06:43:48.885Z,96.81
2022-11-03T06:44:48.858Z,96.70
2022-11-03T06:45:48.843Z,96.70
2022-11-03T06:46:48.850Z,96.50
2022-11-03T06:47:48.809Z,96.19
2022-11-03T06:48:48.848Z,96.08
2022-11-03T06:49:48.785Z,95.87
2022-11-03T06:50:48.775Z,95.71
2022-11-03T06:51:48.783Z,95.50
2022-11-03T06:53:48.768Z,95.29
2022-11-03T06:54:48.715Z,95.29
2022-11-03T06:55:49.735Z,95.19
2022-11-03T06:56:48.716Z,95.09
2022-11-03T06:57:48.719Z,95.13
2022-11-03T06:58:48.659Z,95.13
2022-11-03T06:59:57.036Z,95.23
2022-11-03T07:00:51.700Z,95.23
2022-11-03T07:01:48.739Z,95.34
2022-11-03T07:02:48.636Z,95.54
2022-11-03T07:03:48.618Z,95.65
2022-11-03T07:04:48.588Z,95.86
2022-11-03T07:05:48.629Z,95.96
2022-11-03T07:06:53.037Z,95.96
2022-11-03T07:07:49.547Z,96.06
2022-11-03T07:08:48.527Z,96.17
2022-11-03T07:09:48.528Z,96.17
2022-11-03T07:10:56.028Z,96.12
2022-11-03T07:11:48.516Z,96.33
2022-11-03T07:12:48.538Z,96.33
2022-11-03T07:13:49.476Z,96.44
2022-11-03T07:14:48.470Z,96.44
2022-11-03T07:15:48.451Z,96.54
2022-11-03T07:16:48.461Z,96.54
2022-11-03T07:17:48.480Z,96.64
2022-11-03T07:18:48.411Z,96.64
2022-11-03T07:19:48.410Z,96.70
2022-11-03T07:20:48.388Z,96.70
2022-11-03T07:21:48.389Z,96.70
2022-11-03T07:22:48.379Z,96.70
2022-11-03T07:23:48.358Z,96.70
2022-11-03T07:24:48.493Z,96.66
2022-11-03T07:25:48.385Z,96.66
2022-11-03T07:26:48.351Z,96.66
2022-11-03T07:27:48.310Z,96.76
2022-11-03T07:28:48.289Z,96.76
2022-11-03T07:29:48.358Z,96.86
2022-11-03T07:30:48.328Z,96.92
2022-11-03T07:31:48.286Z,97.03
2022-11-03T07:32:48.265Z,96.98
2022-11-03T07:33:48.250Z,96.98
2022-11-03T07:34:48.207Z,96.88
2022-11-03T07:36:14.196Z,96.83
2022-11-03T07:36:54.369Z,96.83
2022-11-03T07:37:49.168Z,96.73
2022-11-03T07:38:48.152Z,96.73
2022-11-03T07:39:48.245Z,96.73
2022-11-03T07:40:50.145Z,96.69
2022-11-03T07:41:48.144Z,96.79
2022-11-03T07:42:48.109Z,96.85
2022-11-03T07:43:48.090Z,96.85
2022-11-03T07:44:48.078Z,96.75
2022-11-03T07:45:48.354Z,96.70
2022-11-03T07:46:48.054Z,96.55
2022-11-03T07:47:48.122Z,96.45
2022-11-03T07:48:48.031Z,96.34
2022-11-03T07:49:48.012Z,96.30
2022-11-03T07:50:48.003Z,96.15
2022-11-03T07:51:48.006Z,96.05
2022-11-03T07:52:47.963Z,95.80
2022-11-03T07:53:47.947Z,95.59
2022-11-03T07:54:48.995Z,95.34
2022-11-03T07:55:48.225Z,95.24
2022-11-03T07:56:47.934Z,95.14
2022-11-03T07:57:47.895Z,95.03
2022-11-03T07:58:47.923Z,94.93
2022-11-03T07:59:47.896Z,94.93
2022-11-03T08:00:47.899Z,95.03
2022-11-03T08:01:47.995Z,95.14
2022-11-03T08:02:47.943Z,95.24
2022-11-03T08:03:49.853Z,95.30
2022-11-03T08:04:47.806Z,95.40
2022-11-03T08:05:47.832Z,95.30
2022-11-03T08:06:48.797Z,95.30
2022-11-03T08:07:48.786Z,95.30
2022-11-03T08:08:47.810Z,95.15
2022-11-03T08:09:47.795Z,95.15
2022-11-03T08:10:47.779Z,94.90
2022-11-03T08:11:47.790Z,94.90
2022-11-03T08:12:47.748Z,94.76
2022-11-03T08:13:48.733Z,94.51
2022-11-03T08:14:47.678Z,94.09
2022-11-03T08:15:47.692Z,93.74
2022-11-03T08:16:47.769Z,93.54
2022-11-03T08:17:52.200Z,93.29
2022-11-03T08:18:48.713Z,92.97
2022-11-03T08:19:47.613Z,92.52
2022-11-03T08:20:47.640Z,92.11
2022-11-03T08:21:48.602Z,91.86
2022-11-03T08:23:05.044Z,91.31
2022-11-03T08:23:48.578Z,90.59
2022-11-03T08:24:47.611Z,89.93
2022-11-03T08:25:47.532Z,89.83
2022-11-03T08:26:47.538Z,89.52
2022-11-03T08:27:47.533Z,89.27
2022-11-03T08:28:47.501Z,89.17
2022-11-03T08:29:47.592Z,89.17
2022-11-03T08:30:47.556Z,88.92
2022-11-03T08:31:48.479Z,89.13
2022-11-03T08:32:47.452Z,88.92
2022-11-03T08:33:49.492Z,88.72
2022-11-03T08:34:47.432Z,88.47
2022-11-03T08:35:48.424Z,88.06
2022-11-03T08:36:48.421Z,87.85
2022-11-03T08:37:48.401Z,88.02
2022-11-03T08:38:47.374Z,87.82
2022-11-03T08:39:47.373Z,87.47
2022-11-03T08:40:50.154Z,86.81
2022-11-03T08:41:48.484Z,85.71
2022-11-03T08:42:48.318Z,84.41
2022-11-03T08:43:48.316Z,82.49
2022-11-03T08:44:47.285Z,80.47
2022-11-03T08:45:47.299Z,78.77
2022-11-03T08:46:47.275Z,76.86
2022-11-03T08:47:47.260Z,75.37
2022-11-03T08:48:47.254Z,73.39
2022-11-03T08:49:47.246Z,72.45
2022-11-03T08:50:47.215Z,72.25
2022-11-03T08:51:47.268Z,72.25
2022-11-03T08:52:48.179Z,72.34
2022-11-03T08:53:48.169Z,71.70
2022-11-03T08:54:47.213Z,71.77
2022-11-03T08:55:47.155Z,71.53
2022-11-03T08:56:47.298Z,69.95
2022-11-03T08:57:47.108Z,68.46
2022-11-03T08:58:47.146Z,67.42
2022-11-03T08:59:47.139Z,67.11
2022-11-03T09:00:47.097Z,67.82
2022-11-03T09:01:47.279Z,67.11
2022-11-03T09:02:47.117Z,67.05
2022-11-03T09:03:47.299Z,68.29
2022-11-03T09:04:48.088Z,69.20
2022-11-03T09:05:47.077Z,69.13
2022-11-03T09:06:47.028Z,69.95
2022-11-03T09:10:47.954Z,69.68
2022-11-03T09:11:46.918Z,70.48
2022-11-03T09:12:46.909Z,70.05
2022-11-03T09:13:46.909Z,69.44
2022-11-03T09:14:46.899Z,69.44
2022-11-03T09:15:46.892Z,69.20
2022-11-03T09:16:46.871Z,68.87
2022-11-03T09:17:46.860Z,68.73
2022-11-03T09:18:46.833Z,67.49
2022-11-03T09:19:46.821Z,67.32
2022-11-03T09:20:47.984Z,66.05
2022-11-03T09:21:46.792Z,64.90
2022-11-03T09:22:46.807Z,65.51
2022-11-03T09:23:47.776Z,64.24
2022-11-03T09:24:46.768Z,62.97
2022-11-03T09:25:46.733Z,62.21
2022-11-03T09:26:46.745Z,61.27
2022-11-03T09:27:46.811Z,60.33
2022-11-03T09:28:47.703Z,58.33
2022-11-03T09:30:11.603Z,58.80
2022-11-03T09:30:47.682Z,59.17
2022-11-03T09:31:46.694Z,59.08
2022-11-03T09:32:46.644Z,58.47
2022-11-03T09:33:46.638Z,59.17
2022-11-03T09:34:46.635Z,58.47
2022-11-03T09:35:46.613Z,58.47
2022-11-03T09:36:52.155Z,58.24
2022-11-03T09:37:47.624Z,56.96
2022-11-03T09:38:46.585Z,58.00
2022-11-03T09:39:46.599Z,58.50
2022-11-03T09:41:57.957Z,58.57
2022-11-03T09:42:47.536Z,57.34
2022-11-03T09:43:46.505Z,57.17
2022-11-03T09:44:46.507Z,57.17
2022-11-03T09:45:46.488Z,57.46
2022-11-03T09:46:46.487Z,57.04
2022-11-03T10:03:49.784Z,54.47
2022-11-03T10:04:49.767Z,55.08
2022-11-03T10:05:49.752Z,55.65
2022-11-03T10:06:50.744Z,54.60
2022-11-03T10:07:50.812Z,55.18
2022-11-03T10:08:49.714Z,54.05
2022-11-03T10:09:49.711Z,53.80
2022-11-03T10:10:49.685Z,52.87
2022-11-03T10:11:49.718Z,52.72
2022-11-03T10:12:50.656Z,51.32
2022-11-03T10:13:49.658Z,51.62
2022-11-03T10:14:49.638Z,51.92
2022-11-03T10:15:49.617Z,54.22
2022-11-03T10:16:53.487Z,54.82
2022-11-03T10:17:49.608Z,54.70
2022-11-03T10:18:50.576Z,54.24
2022-11-03T10:19:49.575Z,53.22
2022-11-03T10:20:49.557Z,52.49
2022-11-03T10:21:49.560Z,51.47
2022-11-03T10:22:49.533Z,51.84
2022-11-03T10:23:49.531Z,50.62
2022-11-03T10:24:49.507Z,51.87
2022-11-03T10:25:49.503Z,47.83
2022-11-03T10:26:49.505Z,46.69
2022-11-03T10:27:49.470Z,46.83
2022-11-03T10:28:49.460Z,46.08
2022-11-03T10:29:53.439Z,44.55
2022-11-03T10:31:50.456Z,44.07
2022-11-03T10:32:49.531Z,43.24
2022-11-03T10:33:50.397Z,41.14
2022-11-03T10:34:49.374Z,41.12
2022-11-03T10:35:49.380Z,41.24
2022-11-03T10:36:50.668Z,43.57
2022-11-03T10:37:49.344Z,41.89
2022-11-03T10:38:50.387Z,42.78
2022-11-03T10:39:50.332Z,43.00
2022-11-03T10:40:49.372Z,42.49
2022-11-03T10:41:49.295Z,41.77
2022-11-03T10:42:49.292Z,42.22
2022-11-03T10:43:49.274Z,40.33
2022-11-03T10:44:50.248Z,39.93
2022-11-03T10:45:49.237Z,40.23
2022-11-03T10:46:50.948Z,38.63
2022-11-03T10:47:49.220Z,40.39
2022-11-03T10:48:49.187Z,38.73
2022-11-03T10:49:49.190Z,39.06
2022-11-03T10:50:49.169Z,40.45
2022-11-03T10:51:49.170Z,40.13
2022-11-03T10:52:49.209Z,39.72
2022-11-03T10:53:49.130Z,39.64
2022-11-03T10:54:49.123Z,39.18
2022-11-03T10:55:49.160Z,40.01
2022-11-03T10:56:49.240Z,40.70
2022-11-03T10:57:52.929Z,40.41
2022-11-03T10:58:49.136Z,40.92
2022-11-03T10:59:49.078Z,43.57
2022-11-03T11:00:49.082Z,42.25
2022-11-03T11:01:49.195Z,39.75
2022-11-03T11:02:49.023Z,39.85
2022-11-03T11:03:49.070Z,40.48
2022-11-03T11:04:49.011Z,40.09
2022-11-03T11:05:49.000Z,40.47
2022-11-03T11:06:48.993Z,39.26
2022-11-03T11:07:48.988Z,38.94
2022-11-03T11:08:48.963Z,39.37
2022-11-03T11:09:48.946Z,40.90
2022-11-03T11:10:48.969Z,40.50
2022-11-03T11:11:48.938Z,40.50
2022-11-03T11:12:48.907Z,40.52
2022-11-03T11:13:48.928Z,41.49
2022-11-03T11:14:50.922Z,41.18
2022-11-03T11:15:48.882Z,40.39
2022-11-03T11:16:48.889Z,40.68
2022-11-03T11:17:48.849Z,39.99
2022-11-03T11:18:48.850Z,40.56
2022-11-03T11:19:48.827Z,40.20
2022-11-03T11:20:48.848Z,42.39
2022-11-03T11:21:50.001Z,43.76
2022-11-03T11:22:48.799Z,47.33
2022-11-03T11:23:48.799Z,47.58
2022-11-03T11:24:48.782Z,49.65
2022-11-03T11:25:48.751Z,49.57
2022-11-03T11:26:48.741Z,51.40
2022-11-03T11:27:48.787Z,47.63
2022-11-03T11:28:49.581Z,48.71
2022-11-03T11:29:48.714Z,46.84
2022-11-03T11:30:48.684Z,48.05
2022-11-03T11:31:48.682Z,47.86
2022-11-03T11:32:48.682Z,50.23
2022-11-03T11:33:48.673Z,47.53
2022-11-03T11:34:48.654Z,48.91
2022-11-03T11:35:48.665Z,48.86
2022-11-03T11:36:48.616Z,46.23
2022-11-03T11:37:48.629Z,45.43
2022-11-03T11:38:48.604Z,44.92
2022-11-03T11:39:48.586Z,45.61
2022-11-03T11:40:48.556Z,44.52
2022-11-03T11:41:48.555Z,44.44
2022-11-03T11:42:48.576Z,45.01
2022-11-03T11:43:48.538Z,46.31
2022-11-03T11:44:48.518Z,47.05
2022-11-03T11:45:49.507Z,45.95
2022-11-03T11:46:48.537Z,45.36
2022-11-03T11:47:48.543Z,47.56
2022-11-03T11:48:49.474Z,45.18
2022-11-03T11:49:48.459Z,47.59
2022-11-03T11:50:48.441Z,48.08
2022-11-03T11:51:48.438Z,48.01
2022-11-03T11:52:48.474Z,47.81
2022-11-03T11:53:58.798Z,47.03
2022-11-03T11:54:49.412Z,49.27
2022-11-03T11:55:48.393Z,50.27
2022-11-03T11:56:49.373Z,50.27
2022-11-03T11:57:48.422Z,49.53
2022-11-03T11:58:48.351Z,48.83
2022-11-03T11:59:48.342Z,49.45
2022-11-03T12:00:48.327Z,49.57
2022-11-03T12:01:48.396Z,50.17
2022-11-03T12:02:48.304Z,50.00
2022-11-03T12:03:48.392Z,50.74
2022-11-03T12:04:49.279Z,51.57
2022-11-03T12:05:48.263Z,51.50
2022-11-03T12:06:48.274Z,53.44
2022-11-03T12:07:48.266Z,55.17
2022-11-03T12:08:48.226Z,54.37
2022-11-03T12:09:49.212Z,55.40
2022-11-03T12:10:48.247Z,54.82
2022-11-03T12:11:49.228Z,55.60
2022-11-03T12:12:48.178Z,55.60
2022-11-03T12:13:48.168Z,55.40
2022-11-03T12:14:48.137Z,56.70
2022-11-03T12:15:48.149Z,55.90
2022-11-03T12:16:48.119Z,55.52
2022-11-03T12:17:48.127Z,55.73
2022-11-03T12:18:50.691Z,56.02
2022-11-03T12:19:48.078Z,55.02
2022-11-03T12:20:49.068Z,55.95
2022-11-03T12:21:48.069Z,56.56
2022-11-03T12:22:48.063Z,56.85
2022-11-03T12:23:48.047Z,58.29
2022-11-03T12:24:48.020Z,57.48
2022-11-03T12:25:49.011Z,57.79
2022-11-03T12:26:48.001Z,57.89
2022-11-03T12:27:52.048Z,58.22
2022-11-03T12:28:47.973Z,57.14
2022-11-03T12:29:47.964Z,57.67
2022-11-03T12:30:48.992Z,58.90
2022-11-03T12:31:47.944Z,59.41
2022-11-03T12:32:47.924Z,61.01
2022-11-03T12:33:47.960Z,60.74
2022-11-03T12:34:47.885Z,61.04
2022-11-03T12:35:47.887Z,60.24
2022-11-03T12:36:54.754Z,60.57
2022-11-03T12:37:48.856Z,62.07
2022-11-03T12:38:47.862Z,61.47
2022-11-03T12:39:47.836Z,61.47
2022-11-03T12:40:47.817Z,61.90
2022-11-03T12:41:48.815Z,62.01
2022-11-03T12:42:47.794Z,61.83
2022-11-03T12:43:47.836Z,61.76
2022-11-03T12:44:47.755Z,63.47
2022-11-03T12:45:47.752Z,63.20
2022-11-03T12:46:47.765Z,63.73
2022-11-03T12:47:47.723Z,65.99
2022-11-03T12:48:47.718Z,66.39
2022-11-03T12:49:47.701Z,66.29
2022-11-03T12:50:47.676Z,66.29
2022-11-03T12:51:47.699Z,67.63
2022-11-03T12:52:47.655Z,67.02
2022-11-03T12:53:47.661Z,68.04
2022-11-03T12:54:47.620Z,68.04
2022-11-03T12:55:47.634Z,68.04
2022-11-03T12:56:47.611Z,68.87
2022-11-03T12:57:47.614Z,69.48
2022-11-03T12:58:47.590Z,68.98
2022-11-03T12:59:47.563Z,68.07
2022-11-03T13:00:52.178Z,67.86
2022-11-03T13:01:48.646Z,69.11
2022-11-03T13:02:47.610Z,68.00
2022-11-03T13:03:47.544Z,69.62
2022-11-03T13:04:47.504Z,69.95
2022-11-03T13:05:47.496Z,69.55
2022-11-03T13:06:47.497Z,70.15
2022-11-03T13:07:47.485Z,70.25
2022-11-03T13:08:49.205Z,70.59
2022-11-03T13:09:47.436Z,71.00
2022-11-03T13:10:47.424Z,69.89
2022-11-03T13:11:47.421Z,71.20
2022-11-03T13:12:48.411Z,71.20
2022-11-03T13:13:47.403Z,71.33
2022-11-03T13:14:48.721Z,70.12
2022-11-03T13:15:47.365Z,70.96
2022-11-03T13:16:47.424Z,71.60
2022-11-03T13:18:48.343Z,74.13
2022-11-03T13:19:47.314Z,73.73
2022-11-03T13:20:47.335Z,73.43
2022-11-03T13:21:47.290Z,74.44
2022-11-03T13:22:48.275Z,73.83
2022-11-03T13:23:47.270Z,73.16
2022-11-03T13:24:47.277Z,73.56
2022-11-03T13:25:47.369Z,73.66
2022-11-03T13:26:47.228Z,74.37
2022-11-03T13:27:48.196Z,74.77
2022-11-03T13:28:47.219Z,75.49
2022-11-03T13:29:47.190Z,74.77
2022-11-03T13:30:47.200Z,74.27
2022-11-03T13:31:47.151Z,74.41
2022-11-03T13:32:47.139Z,74.10
2022-11-03T13:33:47.126Z,74.71
2022-11-03T13:34:47.128Z,74.51
2022-11-03T13:35:47.287Z,74.30
2022-11-03T13:36:47.097Z,74.30
2022-11-03T13:37:47.111Z,75.22
2022-11-03T13:38:47.102Z,74.41
2022-11-03T13:39:47.068Z,75.01
2022-11-03T13:41:08.381Z,75.01